sensor_id;sensor_type;location;lat;lon;timestamp;temperature;humidity
52275;DHT22;38228;50.940;4.024;2023-03-05T00:00:35;5.90;99.90
52275;DHT22;38228;50.940;4.024;2023-03-05T00:03:00;5.90;99.90
52275;DHT22;38228;50.940;4.024;2023-03-05T00:05:26;6.00;99.90
52275;DHT22;38228;50.940;4.024;2023-03-05T00:07:52;6.20;99.90
52275;DHT22;38228;50.940;4.024;2023-03-05T00:10:17;6.20;99.90
52275;DHT22;38228;50.940;4.024;2023-03-05T00:12:43;6.10;99.90
52275;DHT22;38228;50.940;4.024;2023-03-05T00:15:08;6.20;99.90
52275;DHT22;38228;50.940;4.024;2023-03-05T00:17:34;6.20;99.90
52275;DHT22;38228;50.940;4.024;2023-03-05T00:20:00;6.30;99.90
52275;DHT22;38228;50.940;4.024;2023-03-05T00:22:25;6.10;99.90
52275;DHT22;38228;50.940;4.024;2023-03-05T00:24:51;5.90;99.90
52275;DHT22;38228;50.940;4.024;2023-03-05T00:27:16;5.90;99.90
52275;DHT22;38228;50.940;4.024;2023-03-05T00:29:42;6.10;99.90
52275;DHT22;38228;50.940;4.024;2023-03-05T00:32:07;5.80;99.90
52275;DHT22;38228;50.940;4.024;2023-03-05T00:34:33;5.80;99.90
52275;DHT22;38228;50.940;4.024;2023-03-05T00:37:00;5.70;99.90
52275;DHT22;38228;50.940;4.024;2023-03-05T00:39:26;5.80;99.90
52275;DHT22;38228;50.940;4.024;2023-03-05T00:41:51;5.80;99.90
52275;DHT22;38228;50.940;4.024;2023-03-05T00:44:17;5.80;99.90
52275;DHT22;38228;50.940;4.024;2023-03-05T00:46:43;5.80;99.90
52275;DHT22;38228;50.940;4.024;2023-03-05T00:49:09;5.60;99.90
52275;DHT22;38228;50.940;4.024;2023-03-05T00:51:34;5.60;99.90
52275;DHT22;38228;50.940;4.024;2023-03-05T00:54:00;5.50;99.90
52275;DHT22;38228;50.940;4.024;2023-03-05T00:56:25;5.50;99.90
52275;DHT22;38228;50.940;4.024;2023-03-05T00:58:51;5.90;99.90
52275;DHT22;38228;50.940;4.024;2023-03-05T01:01:17;6.10;99.90
52275;DHT22;38228;50.940;4.024;2023-03-05T01:03:43;6.10;99.90
52275;DHT22;38228;50.940;4.024;2023-03-05T01:06:10;6.10;99.90
52275;DHT22;38228;50.940;4.024;2023-03-05T01:08:36;6.00;99.90
52275;DHT22;38228;50.940;4.024;2023-03-05T01:11:02;5.90;99.90
52275;DHT22;38228;50.940;4.024;2023-03-05T01:13:28;5.80;99.90
52275;DHT22;38228;50.940;4.024;2023-03-05T01:15:54;5.70;99.90
52275;DHT22;38228;50.940;4.024;2023-03-05T01:18:19;5.70;99.90
52275;DHT22;38228;50.940;4.024;2023-03-05T01:20:45;5.60;99.90
52275;DHT22;38228;50.940;4.024;2023-03-05T01:23:10;5.70;99.90
52275;DHT22;38228;50.940;4.024;2023-03-05T01:25:36;5.70;99.90
52275;DHT22;38228;50.940;4.024;2023-03-05T01:28:02;5.80;99.90
52275;DHT22;38228;50.940;4.024;2023-03-05T01:30:27;5.80;99.90
52275;DHT22;38228;50.940;4.024;2023-03-05T01:32:53;5.60;99.90
52275;DHT22;38228;50.940;4.024;2023-03-05T01:35:20;5.60;99.90
52275;DHT22;38228;50.940;4.024;2023-03-05T01:37:46;5.50;99.90
52275;DHT22;38228;50.940;4.024;2023-03-05T01:40:13;5.40;99.90
52275;DHT22;38228;50.940;4.024;2023-03-05T01:42:43;5.20;99.90
52275;DHT22;38228;50.940;4.024;2023-03-05T01:45:11;5.00;99.90
52275;DHT22;38228;50.940;4.024;2023-03-05T01:47:37;5.20;99.90
52275;DHT22;38228;50.940;4.024;2023-03-05T01:50:04;5.20;99.90
52275;DHT22;38228;50.940;4.024;2023-03-05T01:52:30;4.90;99.90
52275;DHT22;38228;50.940;4.024;2023-03-05T01:55:02;4.90;99.90
52275;DHT22;38228;50.940;4.024;2023-03-05T01:57:30;4.90;99.90
52275;DHT22;38228;50.940;4.024;2023-03-05T01:59:58;4.80;99.90
52275;DHT22;38228;50.940;4.024;2023-03-05T02:02:25;4.90;99.90
52275;DHT22;38228;50.940;4.024;2023-03-05T02:04:54;4.90;99.90
52275;DHT22;38228;50.940;4.024;2023-03-05T02:07:21;5.00;99.90
52275;DHT22;38228;50.940;4.024;2023-03-05T02:09:48;5.10;99.90
52275;DHT22;38228;50.940;4.024;2023-03-05T02:12:13;5.10;99.90
52275;DHT22;38228;50.940;4.024;2023-03-05T02:14:40;5.10;99.90
52275;DHT22;38228;50.940;4.024;2023-03-05T02:17:06;5.10;99.90
52275;DHT22;38228;50.940;4.024;2023-03-05T02:22:16;5.00;99.90
52275;DHT22;38228;50.940;4.024;2023-03-05T02:24:42;4.90;99.90
52275;DHT22;38228;50.940;4.024;2023-03-05T02:27:07;4.70;99.90
52275;DHT22;38228;50.940;4.024;2023-03-05T02:29:33;4.70;99.90
52275;DHT22;38228;50.940;4.024;2023-03-05T02:32:01;4.70;99.90
52275;DHT22;38228;50.940;4.024;2023-03-05T02:34:26;4.60;99.90
52275;DHT22;38228;50.940;4.024;2023-03-05T02:36:52;4.60;99.90
52275;DHT22;38228;50.940;4.024;2023-03-05T02:39:19;4.60;99.90
52275;DHT22;38228;50.940;4.024;2023-03-05T02:41:45;4.60;99.90
52275;DHT22;38228;50.940;4.024;2023-03-05T02:44:10;4.70;99.90
52275;DHT22;38228;50.940;4.024;2023-03-05T02:46:36;4.60;99.90
52275;DHT22;38228;50.940;4.024;2023-03-05T02:49:01;4.50;99.90
52275;DHT22;38228;50.940;4.024;2023-03-05T02:51:27;4.60;99.90
52275;DHT22;38228;50.940;4.024;2023-03-05T02:53:53;4.60;99.90
52275;DHT22;38228;50.940;4.024;2023-03-05T02:56:18;4.50;99.90
52275;DHT22;38228;50.940;4.024;2023-03-05T02:58:44;4.50;99.90
52275;DHT22;38228;50.940;4.024;2023-03-05T03:01:10;4.50;99.90
52275;DHT22;38228;50.940;4.024;2023-03-05T03:03:35;4.60;99.90
52275;DHT22;38228;50.940;4.024;2023-03-05T03:06:01;4.50;99.90
52275;DHT22;38228;50.940;4.024;2023-03-05T03:08:27;4.50;99.90
52275;DHT22;38228;50.940;4.024;2023-03-05T03:10:52;4.50;99.90
52275;DHT22;38228;50.940;4.024;2023-03-05T03:13:22;4.50;99.90
52275;DHT22;38228;50.940;4.024;2023-03-05T03:15:47;4.50;99.90
52275;DHT22;38228;50.940;4.024;2023-03-05T03:18:13;4.60;99.90
52275;DHT22;38228;50.940;4.024;2023-03-05T03:20:38;4.60;99.90
52275;DHT22;38228;50.940;4.024;2023-03-05T03:23:04;4.60;99.90
52275;DHT22;38228;50.940;4.024;2023-03-05T03:25:30;4.60;99.90
52275;DHT22;38228;50.940;4.024;2023-03-05T03:27:56;4.60;99.90
52275;DHT22;38228;50.940;4.024;2023-03-05T03:30:21;4.70;99.90
52275;DHT22;38228;50.940;4.024;2023-03-05T03:32:47;4.70;99.90
52275;DHT22;38228;50.940;4.024;2023-03-05T03:35:14;4.80;99.90
52275;DHT22;38228;50.940;4.024;2023-03-05T03:37:40;4.90;99.90
52275;DHT22;38228;50.940;4.024;2023-03-05T03:40:06;4.80;99.90
52275;DHT22;38228;50.940;4.024;2023-03-05T03:42:31;4.70;99.90
52275;DHT22;38228;50.940;4.024;2023-03-05T03:44:57;4.70;99.90
52275;DHT22;38228;50.940;4.024;2023-03-05T03:47:24;4.80;99.90
52275;DHT22;38228;50.940;4.024;2023-03-05T03:49:52;4.90;99.90
52275;DHT22;38228;50.940;4.024;2023-03-05T03:52:18;4.80;99.90
52275;DHT22;38228;50.940;4.024;2023-03-05T03:54:43;4.80;99.90
52275;DHT22;38228;50.940;4.024;2023-03-05T03:57:09;4.90;99.90
52275;DHT22;38228;50.940;4.024;2023-03-05T03:59:34;5.00;99.90
52275;DHT22;38228;50.940;4.024;2023-03-05T04:02:00;5.00;99.90
52275;DHT22;38228;50.940;4.024;2023-03-05T04:04:25;5.00;99.90
52275;DHT22;38228;50.940;4.024;2023-03-05T04:06:53;4.90;99.90
52275;DHT22;38228;50.940;4.024;2023-03-05T04:09:18;5.00;99.90
52275;DHT22;38228;50.940;4.024;2023-03-05T04:11:44;4.90;99.90
52275;DHT22;38228;50.940;4.024;2023-03-05T04:14:09;4.90;99.90
52275;DHT22;38228;50.940;4.024;2023-03-05T04:16:35;4.80;99.90
52275;DHT22;38228;50.940;4.024;2023-03-05T04:19:00;4.90;99.90
52275;DHT22;38228;50.940;4.024;2023-03-05T04:21:26;5.00;99.90
52275;DHT22;38228;50.940;4.024;2023-03-05T04:23:51;4.90;99.90
52275;DHT22;38228;50.940;4.024;2023-03-05T04:26:17;4.90;99.90
52275;DHT22;38228;50.940;4.024;2023-03-05T04:28:43;5.00;99.90
52275;DHT22;38228;50.940;4.024;2023-03-05T04:31:08;4.80;99.90
52275;DHT22;38228;50.940;4.024;2023-03-05T04:33:34;4.80;99.90
52275;DHT22;38228;50.940;4.024;2023-03-05T04:35:59;4.90;99.90
52275;DHT22;38228;50.940;4.024;2023-03-05T04:38:25;4.90;99.90
52275;DHT22;38228;50.940;4.024;2023-03-05T04:40:50;4.90;99.90
52275;DHT22;38228;50.940;4.024;2023-03-05T04:43:16;4.90;99.90
52275;DHT22;38228;50.940;4.024;2023-03-05T04:45:42;4.80;99.90
52275;DHT22;38228;50.940;4.024;2023-03-05T04:48:08;4.80;99.90
52275;DHT22;38228;50.940;4.024;2023-03-05T04:50:35;4.80;99.90
52275;DHT22;38228;50.940;4.024;2023-03-05T04:53:00;4.70;99.90
52275;DHT22;38228;50.940;4.024;2023-03-05T04:55:26;4.70;99.90
52275;DHT22;38228;50.940;4.024;2023-03-05T04:57:51;4.60;99.90
52275;DHT22;38228;50.940;4.024;2023-03-05T05:00:17;4.50;99.90
52275;DHT22;38228;50.940;4.024;2023-03-05T05:02:44;4.50;99.90
52275;DHT22;38228;50.940;4.024;2023-03-05T05:05:11;4.60;99.90
52275;DHT22;38228;50.940;4.024;2023-03-05T05:07:37;4.60;99.90
52275;DHT22;38228;50.940;4.024;2023-03-05T05:10:02;4.80;99.90
52275;DHT22;38228;50.940;4.024;2023-03-05T05:12:28;4.80;99.90
52275;DHT22;38228;50.940;4.024;2023-03-05T05:14:55;4.80;99.90
52275;DHT22;38228;50.940;4.024;2023-03-05T05:17:21;4.80;99.90
52275;DHT22;38228;50.940;4.024;2023-03-05T05:19:47;4.90;99.90
52275;DHT22;38228;50.940;4.024;2023-03-05T05:22:13;4.80;99.90
52275;DHT22;38228;50.940;4.024;2023-03-05T05:24:38;4.80;99.90
52275;DHT22;38228;50.940;4.024;2023-03-05T05:27:04;4.90;99.90
52275;DHT22;38228;50.940;4.024;2023-03-05T05:29:30;5.00;99.90
52275;DHT22;38228;50.940;4.024;2023-03-05T05:31:55;5.00;99.90
52275;DHT22;38228;50.940;4.024;2023-03-05T05:34:21;4.90;99.90
52275;DHT22;38228;50.940;4.024;2023-03-05T05:36:49;4.90;99.90
52275;DHT22;38228;50.940;4.024;2023-03-05T05:39:15;4.90;99.90
52275;DHT22;38228;50.940;4.024;2023-03-05T05:41:40;4.90;99.90
52275;DHT22;38228;50.940;4.024;2023-03-05T05:44:06;4.90;99.90
52275;DHT22;38228;50.940;4.024;2023-03-05T05:46:31;4.90;99.90
52275;DHT22;38228;50.940;4.024;2023-03-05T05:48:57;4.90;99.90
52275;DHT22;38228;50.940;4.024;2023-03-05T05:51:23;5.00;99.90
52275;DHT22;38228;50.940;4.024;2023-03-05T05:53:49;5.00;99.90
52275;DHT22;38228;50.940;4.024;2023-03-05T05:56:15;4.90;99.90
52275;DHT22;38228;50.940;4.024;2023-03-05T05:58:44;4.90;99.90
52275;DHT22;38228;50.940;4.024;2023-03-05T06:01:12;5.00;99.90
52275;DHT22;38228;50.940;4.024;2023-03-05T06:03:38;4.80;99.90
52275;DHT22;38228;50.940;4.024;2023-03-05T06:06:07;4.90;99.90
52275;DHT22;38228;50.940;4.024;2023-03-05T06:08:32;5.00;99.90
52275;DHT22;38228;50.940;4.024;2023-03-05T06:10:58;5.00;99.90
52275;DHT22;38228;50.940;4.024;2023-03-05T06:13:23;5.00;99.90
52275;DHT22;38228;50.940;4.024;2023-03-05T06:15:56;5.10;99.90
52275;DHT22;38228;50.940;4.024;2023-03-05T06:18:22;5.10;99.90
52275;DHT22;38228;50.940;4.024;2023-03-05T06:20:57;5.10;99.90
52275;DHT22;38228;50.940;4.024;2023-03-05T06:23:24;5.10;99.90
52275;DHT22;38228;50.940;4.024;2023-03-05T06:25:50;5.20;99.90
52275;DHT22;38228;50.940;4.024;2023-03-05T06:28:15;5.20;99.90
52275;DHT22;38228;50.940;4.024;2023-03-05T06:30:41;5.10;99.90
52275;DHT22;38228;50.940;4.024;2023-03-05T06:33:06;5.00;99.90
52275;DHT22;38228;50.940;4.024;2023-03-05T06:35:32;5.00;99.90
52275;DHT22;38228;50.940;4.024;2023-03-05T06:37:58;5.00;99.90
52275;DHT22;38228;50.940;4.024;2023-03-05T06:40:23;5.00;99.90
52275;DHT22;38228;50.940;4.024;2023-03-05T06:42:49;4.90;99.90
52275;DHT22;38228;50.940;4.024;2023-03-05T06:45:14;5.00;99.90
52275;DHT22;38228;50.940;4.024;2023-03-05T06:47:40;4.90;99.90
52275;DHT22;38228;50.940;4.024;2023-03-05T06:50:06;5.00;99.90
52275;DHT22;38228;50.940;4.024;2023-03-05T06:52:32;5.00;99.90
52275;DHT22;38228;50.940;4.024;2023-03-05T06:54:57;5.10;99.90
52275;DHT22;38228;50.940;4.024;2023-03-05T06:57:23;5.00;99.90
52275;DHT22;38228;50.940;4.024;2023-03-05T06:59:48;5.00;99.90
52275;DHT22;38228;50.940;4.024;2023-03-05T07:02:14;5.00;99.90
52275;DHT22;38228;50.940;4.024;2023-03-05T07:04:40;5.00;99.90
52275;DHT22;38228;50.940;4.024;2023-03-05T07:07:05;5.00;99.90
52275;DHT22;38228;50.940;4.024;2023-03-05T07:09:31;5.20;99.90
52275;DHT22;38228;50.940;4.024;2023-03-05T07:11:56;5.30;99.90
52275;DHT22;38228;50.940;4.024;2023-03-05T07:14:22;5.40;99.90
52275;DHT22;38228;50.940;4.024;2023-03-05T07:16:47;5.50;99.90
52275;DHT22;38228;50.940;4.024;2023-03-05T07:19:14;5.50;99.90
52275;DHT22;38228;50.940;4.024;2023-03-05T07:21:40;5.50;99.90
52275;DHT22;38228;50.940;4.024;2023-03-05T07:24:06;5.40;99.90
52275;DHT22;38228;50.940;4.024;2023-03-05T07:26:31;5.30;99.90
52275;DHT22;38228;50.940;4.024;2023-03-05T07:29:00;5.40;99.90
52275;DHT22;38228;50.940;4.024;2023-03-05T07:31:26;5.40;99.90
52275;DHT22;38228;50.940;4.024;2023-03-05T07:33:55;5.50;99.90
52275;DHT22;38228;50.940;4.024;2023-03-05T07:36:21;5.50;99.90
52275;DHT22;38228;50.940;4.024;2023-03-05T07:38:47;5.60;99.90
52275;DHT22;38228;50.940;4.024;2023-03-05T07:41:13;5.70;99.90
52275;DHT22;38228;50.940;4.024;2023-03-05T07:43:44;5.60;99.90
52275;DHT22;38228;50.940;4.024;2023-03-05T07:46:10;5.60;99.90
52275;DHT22;38228;50.940;4.024;2023-03-05T07:48:35;5.50;99.90
52275;DHT22;38228;50.940;4.024;2023-03-05T07:51:02;5.50;99.90
52275;DHT22;38228;50.940;4.024;2023-03-05T07:53:28;5.50;99.90
52275;DHT22;38228;50.940;4.024;2023-03-05T07:55:53;5.50;99.90
52275;DHT22;38228;50.940;4.024;2023-03-05T07:58:19;5.50;99.90
52275;DHT22;38228;50.940;4.024;2023-03-05T08:00:45;5.60;99.90
52275;DHT22;38228;50.940;4.024;2023-03-05T08:03:10;5.50;99.90
52275;DHT22;38228;50.940;4.024;2023-03-05T08:05:39;5.70;99.90
52275;DHT22;38228;50.940;4.024;2023-03-05T08:08:06;5.80;99.90
52275;DHT22;38228;50.940;4.024;2023-03-05T08:10:32;5.80;99.90
52275;DHT22;38228;50.940;4.024;2023-03-05T08:12:58;5.90;99.90
52275;DHT22;38228;50.940;4.024;2023-03-05T08:15:24;5.90;99.90
52275;DHT22;38228;50.940;4.024;2023-03-05T08:17:49;5.90;99.90
52275;DHT22;38228;50.940;4.024;2023-03-05T08:20:15;6.00;99.90
52275;DHT22;38228;50.940;4.024;2023-03-05T08:22:40;6.10;99.90
52275;DHT22;38228;50.940;4.024;2023-03-05T08:25:06;6.30;99.90
52275;DHT22;38228;50.940;4.024;2023-03-05T08:27:32;6.30;99.90
52275;DHT22;38228;50.940;4.024;2023-03-05T08:29:59;6.30;99.90
52275;DHT22;38228;50.940;4.024;2023-03-05T08:32:25;6.40;99.90
52275;DHT22;38228;50.940;4.024;2023-03-05T08:34:54;6.40;99.90
52275;DHT22;38228;50.940;4.024;2023-03-05T08:37:21;6.60;99.90
52275;DHT22;38228;50.940;4.024;2023-03-05T08:39:47;6.50;99.90
52275;DHT22;38228;50.940;4.024;2023-03-05T08:42:12;6.50;99.90
52275;DHT22;38228;50.940;4.024;2023-03-05T08:44:38;6.40;99.90
52275;DHT22;38228;50.940;4.024;2023-03-05T08:47:03;6.40;99.90
52275;DHT22;38228;50.940;4.024;2023-03-05T08:49:29;6.40;99.90
52275;DHT22;38228;50.940;4.024;2023-03-05T08:51:55;6.40;99.90
52275;DHT22;38228;50.940;4.024;2023-03-05T08:54:20;6.40;99.90
52275;DHT22;38228;50.940;4.024;2023-03-05T08:56:46;6.20;99.90
52275;DHT22;38228;50.940;4.024;2023-03-05T08:59:11;6.10;99.90
52275;DHT22;38228;50.940;4.024;2023-03-05T09:01:37;6.10;99.90
52275;DHT22;38228;50.940;4.024;2023-03-05T09:04:02;6.10;99.90
52275;DHT22;38228;50.940;4.024;2023-03-05T09:06:28;6.00;99.90
52275;DHT22;38228;50.940;4.024;2023-03-05T09:08:54;5.60;99.90
52275;DHT22;38228;50.940;4.024;2023-03-05T09:11:19;5.50;99.90
52275;DHT22;38228;50.940;4.024;2023-03-05T09:13:45;5.40;99.90
52275;DHT22;38228;50.940;4.024;2023-03-05T09:16:12;5.50;99.90
52275;DHT22;38228;50.940;4.024;2023-03-05T09:18:37;5.60;99.90
52275;DHT22;38228;50.940;4.024;2023-03-05T09:21:05;5.70;99.90
52275;DHT22;38228;50.940;4.024;2023-03-05T09:23:30;5.80;99.90
52275;DHT22;38228;50.940;4.024;2023-03-05T09:25:56;5.80;99.90
52275;DHT22;38228;50.940;4.024;2023-03-05T09:28:21;5.80;99.90
52275;DHT22;38228;50.940;4.024;2023-03-05T09:30:47;5.70;99.90
52275;DHT22;38228;50.940;4.024;2023-03-05T09:33:13;5.60;99.90
52275;DHT22;38228;50.940;4.024;2023-03-05T09:35:38;5.50;99.90
52275;DHT22;38228;50.940;4.024;2023-03-05T09:38:04;5.60;99.90
52275;DHT22;38228;50.940;4.024;2023-03-05T09:40:31;5.70;99.90
52275;DHT22;38228;50.940;4.024;2023-03-05T09:43:15;5.40;99.90
52275;DHT22;38228;50.940;4.024;2023-03-05T09:45:46;5.40;99.90
52275;DHT22;38228;50.940;4.024;2023-03-05T09:48:25;5.60;99.90
52275;DHT22;38228;50.940;4.024;2023-03-05T09:51:02;6.00;99.90
52275;DHT22;38228;50.940;4.024;2023-03-05T09:55:54;6.20;99.90
52275;DHT22;38228;50.940;4.024;2023-03-05T09:58:39;6.10;99.90
52275;DHT22;38228;50.940;4.024;2023-03-05T10:01:21;6.30;99.90
52275;DHT22;38228;50.940;4.024;2023-03-05T10:03:53;6.50;99.90
52275;DHT22;38228;50.940;4.024;2023-03-05T10:06:25;6.40;99.90
52275;DHT22;38228;50.940;4.024;2023-03-05T10:08:53;6.40;99.90
52275;DHT22;38228;50.940;4.024;2023-03-05T10:13:47;6.60;99.90
52275;DHT22;38228;50.940;4.024;2023-03-05T10:21:28;6.80;99.90
52275;DHT22;38228;50.940;4.024;2023-03-05T10:26:34;6.80;99.90
52275;DHT22;38228;50.940;4.024;2023-03-05T10:31:58;6.80;99.90
52275;DHT22;38228;50.940;4.024;2023-03-05T10:34:43;7.10;99.90
52275;DHT22;38228;50.940;4.024;2023-03-05T10:44:43;6.80;99.90
52275;DHT22;38228;50.940;4.024;2023-03-05T10:47:13;6.90;99.90
52275;DHT22;38228;50.940;4.024;2023-03-05T10:49:41;6.80;99.90
52275;DHT22;38228;50.940;4.024;2023-03-05T10:52:12;7.00;99.90
52275;DHT22;38228;50.940;4.024;2023-03-05T10:54:40;7.10;99.90
52275;DHT22;38228;50.940;4.024;2023-03-05T10:59:46;7.30;99.90
52275;DHT22;38228;50.940;4.024;2023-03-05T11:02:12;7.30;99.90
52275;DHT22;38228;50.940;4.024;2023-03-05T11:04:38;7.20;99.90
52275;DHT22;38228;50.940;4.024;2023-03-05T11:07:27;7.10;99.90
52275;DHT22;38228;50.940;4.024;2023-03-05T11:12:28;6.90;99.90
52275;DHT22;38228;50.940;4.024;2023-03-05T11:20:40;7.30;99.90
52275;DHT22;38228;50.940;4.024;2023-03-05T11:23:19;7.50;99.90
52275;DHT22;38228;50.940;4.024;2023-03-05T11:25:55;7.30;99.90
52275;DHT22;38228;50.940;4.024;2023-03-05T11:28:26;7.30;99.90
52275;DHT22;38228;50.940;4.024;2023-03-05T11:30:57;7.30;99.90
52275;DHT22;38228;50.940;4.024;2023-03-05T11:33:23;7.50;99.90
52275;DHT22;38228;50.940;4.024;2023-03-05T11:35:49;7.70;99.90
52275;DHT22;38228;50.940;4.024;2023-03-05T11:38:17;7.50;99.90
52275;DHT22;38228;50.940;4.024;2023-03-05T11:40:43;6.80;99.90
52275;DHT22;38228;50.940;4.024;2023-03-05T11:43:09;6.20;99.90
52275;DHT22;38228;50.940;4.024;2023-03-05T11:45:38;6.20;99.90
52275;DHT22;38228;50.940;4.024;2023-03-05T11:48:07;6.00;99.90
52275;DHT22;38228;50.940;4.024;2023-03-05T11:50:33;6.00;99.90
52275;DHT22;38228;50.940;4.024;2023-03-05T11:55:31;6.00;99.90
52275;DHT22;38228;50.940;4.024;2023-03-05T11:58:03;6.10;99.90
52275;DHT22;38228;50.940;4.024;2023-03-05T12:00:36;6.10;99.90
52275;DHT22;38228;50.940;4.024;2023-03-05T12:03:03;6.20;99.90
52275;DHT22;38228;50.940;4.024;2023-03-05T12:05:31;6.10;99.90
52275;DHT22;38228;50.940;4.024;2023-03-05T12:07:58;6.20;99.90
52275;DHT22;38228;50.940;4.024;2023-03-05T12:10:25;6.10;99.90
52275;DHT22;38228;50.940;4.024;2023-03-05T12:15:21;6.00;99.90
52275;DHT22;38228;50.940;4.024;2023-03-05T12:23:16;5.70;99.90
52275;DHT22;38228;50.940;4.024;2023-03-05T12:25:49;5.90;99.90
52275;DHT22;38228;50.940;4.024;2023-03-05T12:28:16;5.80;99.90
52275;DHT22;38228;50.940;4.024;2023-03-05T12:33:37;5.60;99.90
52275;DHT22;38228;50.940;4.024;2023-03-05T12:38:50;5.60;99.90
52275;DHT22;38228;50.940;4.024;2023-03-05T12:43:45;5.50;99.90
52275;DHT22;38228;50.940;4.024;2023-03-05T12:51:44;4.90;99.90
52275;DHT22;38228;50.940;4.024;2023-03-05T12:56:45;4.60;99.90
52275;DHT22;38228;50.940;4.024;2023-03-05T12:59:11;4.40;99.90
52275;DHT22;38228;50.940;4.024;2023-03-05T13:01:56;4.20;99.90
52275;DHT22;38228;50.940;4.024;2023-03-05T13:04:24;4.20;99.90
52275;DHT22;38228;50.940;4.024;2023-03-05T13:09:52;4.10;99.90
52275;DHT22;38228;50.940;4.024;2023-03-05T13:12:18;4.20;99.90
52275;DHT22;38228;50.940;4.024;2023-03-05T13:14:47;4.20;99.90
52275;DHT22;38228;50.940;4.024;2023-03-05T13:23:01;4.50;99.90
52275;DHT22;38228;50.940;4.024;2023-03-05T13:25:26;4.70;99.90
52275;DHT22;38228;50.940;4.024;2023-03-05T13:27:52;4.60;99.90
52275;DHT22;38228;50.940;4.024;2023-03-05T13:30:26;4.70;99.90
52275;DHT22;38228;50.940;4.024;2023-03-05T13:32:53;4.80;99.90
52275;DHT22;38228;50.940;4.024;2023-03-05T13:35:20;4.70;99.90
52275;DHT22;38228;50.940;4.024;2023-03-05T13:37:46;4.70;99.90
52275;DHT22;38228;50.940;4.024;2023-03-05T13:42:41;4.80;99.90
52275;DHT22;38228;50.940;4.024;2023-03-05T13:45:19;5.00;99.90
52275;DHT22;38228;50.940;4.024;2023-03-05T13:47:59;5.20;99.90
52275;DHT22;38228;50.940;4.024;2023-03-05T13:50:27;5.30;99.90
52275;DHT22;38228;50.940;4.024;2023-03-05T13:52:53;5.40;99.90
52275;DHT22;38228;50.940;4.024;2023-03-05T13:55:18;5.50;99.90
52275;DHT22;38228;50.940;4.024;2023-03-05T13:57:45;5.60;99.90
52275;DHT22;38228;50.940;4.024;2023-03-05T14:02:50;5.80;99.90
52275;DHT22;38228;50.940;4.024;2023-03-05T14:05:15;6.00;99.90
52275;DHT22;38228;50.940;4.024;2023-03-05T14:07:41;6.10;99.90
52275;DHT22;38228;50.940;4.024;2023-03-05T14:12:51;6.00;99.90
52275;DHT22;38228;50.940;4.024;2023-03-05T14:15:21;6.10;99.90
52275;DHT22;38228;50.940;4.024;2023-03-05T14:17:48;6.20;99.90
52275;DHT22;38228;50.940;4.024;2023-03-05T14:20:26;6.30;99.90
52275;DHT22;38228;50.940;4.024;2023-03-05T14:22:56;6.10;99.90
52275;DHT22;38228;50.940;4.024;2023-03-05T14:25:26;6.10;99.90
52275;DHT22;38228;50.940;4.024;2023-03-05T14:27:53;6.20;99.90
52275;DHT22;38228;50.940;4.024;2023-03-05T14:30:19;6.20;99.90
52275;DHT22;38228;50.940;4.024;2023-03-05T14:32:45;6.40;99.90
52275;DHT22;38228;50.940;4.024;2023-03-05T14:35:15;6.30;99.90
52275;DHT22;38228;50.940;4.024;2023-03-05T14:37:41;6.20;99.90
52275;DHT22;38228;50.940;4.024;2023-03-05T14:43:00;6.30;99.90
52275;DHT22;38228;50.940;4.024;2023-03-05T14:45:29;6.50;99.90
52275;DHT22;38228;50.940;4.024;2023-03-05T14:47:56;6.80;99.90
52275;DHT22;38228;50.940;4.024;2023-03-05T14:50:29;6.90;99.90
52275;DHT22;38228;50.940;4.024;2023-03-05T14:52:57;7.10;99.90
52275;DHT22;38228;50.940;4.024;2023-03-05T14:55:24;7.10;99.90
52275;DHT22;38228;50.940;4.024;2023-03-05T14:57:50;7.00;99.90
52275;DHT22;38228;50.940;4.024;2023-03-05T15:00:20;6.90;99.90
52275;DHT22;38228;50.940;4.024;2023-03-05T15:02:46;6.90;99.90
52275;DHT22;38228;50.940;4.024;2023-03-05T15:05:12;6.80;99.90
52275;DHT22;38228;50.940;4.024;2023-03-05T15:07:38;6.90;99.90
52275;DHT22;38228;50.940;4.024;2023-03-05T15:10:04;6.90;99.90
52275;DHT22;38228;50.940;4.024;2023-03-05T15:12:31;6.90;99.90
52275;DHT22;38228;50.940;4.024;2023-03-05T15:14:57;6.80;99.90
52275;DHT22;38228;50.940;4.024;2023-03-05T15:17:33;6.70;99.90
52275;DHT22;38228;50.940;4.024;2023-03-05T15:19:59;6.80;99.90
52275;DHT22;38228;50.940;4.024;2023-03-05T15:22:25;6.70;99.90
52275;DHT22;38228;50.940;4.024;2023-03-05T15:24:50;6.70;99.90
52275;DHT22;38228;50.940;4.024;2023-03-05T15:27:16;6.60;99.90
52275;DHT22;38228;50.940;4.024;2023-03-05T15:29:42;6.60;99.90
52275;DHT22;38228;50.940;4.024;2023-03-05T15:32:08;6.50;99.90
52275;DHT22;38228;50.940;4.024;2023-03-05T15:34:33;6.40;99.90
52275;DHT22;38228;50.940;4.024;2023-03-05T15:37:00;6.30;99.90
52275;DHT22;38228;50.940;4.024;2023-03-05T15:39:26;6.20;99.90
52275;DHT22;38228;50.940;4.024;2023-03-05T15:41:52;6.10;99.90
52275;DHT22;38228;50.940;4.024;2023-03-05T15:44:18;6.10;99.90
52275;DHT22;38228;50.940;4.024;2023-03-05T15:46:43;6.10;99.90
52275;DHT22;38228;50.940;4.024;2023-03-05T15:49:09;6.20;99.90
52275;DHT22;38228;50.940;4.024;2023-03-05T15:51:34;6.20;99.90
52275;DHT22;38228;50.940;4.024;2023-03-05T15:54:00;6.10;99.90
52275;DHT22;38228;50.940;4.024;2023-03-05T15:56:26;6.10;99.90
52275;DHT22;38228;50.940;4.024;2023-03-05T15:58:51;6.20;99.90
52275;DHT22;38228;50.940;4.024;2023-03-05T16:01:17;6.20;99.90
52275;DHT22;38228;50.940;4.024;2023-03-05T16:03:48;6.20;99.90
52275;DHT22;38228;50.940;4.024;2023-03-05T16:06:13;6.00;99.90
52275;DHT22;38228;50.940;4.024;2023-03-05T16:08:40;6.20;99.90
52275;DHT22;38228;50.940;4.024;2023-03-05T16:11:08;6.20;99.90
52275;DHT22;38228;50.940;4.024;2023-03-05T16:13:34;6.10;99.90
52275;DHT22;38228;50.940;4.024;2023-03-05T16:16:00;5.90;99.90
52275;DHT22;38228;50.940;4.024;2023-03-05T16:18:26;6.00;99.90
52275;DHT22;38228;50.940;4.024;2023-03-05T16:20:54;6.10;99.90
52275;DHT22;38228;50.940;4.024;2023-03-05T16:23:19;6.10;99.90
52275;DHT22;38228;50.940;4.024;2023-03-05T16:25:46;5.90;99.90
52275;DHT22;38228;50.940;4.024;2023-03-05T16:28:12;6.00;99.90
52275;DHT22;38228;50.940;4.024;2023-03-05T16:30:38;6.00;99.90
52275;DHT22;38228;50.940;4.024;2023-03-05T16:33:04;6.00;99.90
52275;DHT22;38228;50.940;4.024;2023-03-05T16:35:29;5.90;99.90
52275;DHT22;38228;50.940;4.024;2023-03-05T16:37:55;6.10;99.90
52275;DHT22;38228;50.940;4.024;2023-03-05T16:40:21;6.10;99.90
52275;DHT22;38228;50.940;4.024;2023-03-05T16:42:47;6.00;99.90
52275;DHT22;38228;50.940;4.024;2023-03-05T16:45:13;6.20;99.90
52275;DHT22;38228;50.940;4.024;2023-03-05T16:47:39;6.10;99.90
52275;DHT22;38228;50.940;4.024;2023-03-05T16:50:05;5.90;99.90
52275;DHT22;38228;50.940;4.024;2023-03-05T16:52:30;5.90;99.90
52275;DHT22;38228;50.940;4.024;2023-03-05T16:54:56;5.90;99.90
52275;DHT22;38228;50.940;4.024;2023-03-05T16:57:22;5.90;99.90
52275;DHT22;38228;50.940;4.024;2023-03-05T16:59:50;6.00;99.90
52275;DHT22;38228;50.940;4.024;2023-03-05T17:02:15;5.90;99.90
52275;DHT22;38228;50.940;4.024;2023-03-05T17:04:41;5.90;99.90